createdAt,value
2018-04-12T00:00:24.754Z,13.84
2018-04-12T00:01:31.271Z,13.84
2018-04-12T00:02:37.056Z,13.83
2018-04-12T00:03:42.819Z,13.81
2018-04-12T00:04:49.383Z,13.81
2018-04-12T00:05:55.211Z,13.79
2018-04-12T00:07:00.988Z,13.79
2018-04-12T00:08:06.757Z,13.77
2018-04-12T00:09:12.528Z,13.77
2018-04-12T00:10:19.053Z,13.75
2018-04-12T00:11:24.864Z,13.73
2018-04-12T00:12:30.797Z,13.72
2018-04-12T00:13:36.591Z,13.71
2018-04-12T00:14:42.363Z,13.67
2018-04-12T00:15:48.895Z,13.65
2018-04-12T00:16:54.700Z,13.63
2018-04-12T00:18:00.471Z,13.61
2018-04-12T00:19:06.243Z,13.59
2018-04-12T00:20:12.784Z,13.57
2018-04-12T00:21:18.584Z,13.56
2018-04-12T00:22:24.366Z,13.54
2018-04-12T00:23:30.147Z,13.54
2018-04-12T00:24:36.672Z,13.52
2018-04-12T00:25:43.203Z,13.52
2018-04-12T00:26:49.731Z,13.50
2018-04-12T00:27:55.283Z,13.49
2018-04-12T00:29:01.064Z,13.47
2018-04-12T00:30:06.584Z,13.46
2018-04-12T00:31:12.406Z,13.43
2018-04-12T00:32:18.172Z,13.41
2018-04-12T00:33:23.970Z,13.41
2018-04-12T00:34:30.491Z,13.40
2018-04-12T00:35:36.261Z,13.40
2018-04-12T00:36:42.791Z,13.39
2018-04-12T00:37:48.579Z,13.37
2018-04-12T00:38:54.403Z,13.35
2018-04-12T00:40:01.123Z,13.34
2018-04-12T00:41:07.027Z,13.35
2018-04-12T00:42:13.560Z,13.33
2018-04-12T00:43:19.337Z,13.33
2018-04-12T00:44:25.127Z,13.32
2018-04-12T00:45:30.908Z,13.32
2018-04-12T00:46:36.845Z,13.30
2018-04-12T00:47:42.619Z,13.29
2018-04-12T00:48:48.391Z,13.29
2018-04-12T00:49:54.175Z,13.29
2018-04-12T00:51:00.746Z,13.25
2018-04-12T00:52:06.512Z,13.26
2018-04-12T00:53:12.035Z,13.24
2018-04-12T00:54:17.576Z,13.24
2018-04-12T00:55:23.362Z,13.24
2018-04-12T00:56:28.901Z,13.23
2018-04-12T00:57:34.663Z,13.23
2018-04-12T00:58:41.192Z,13.23
2018-04-12T00:59:47.525Z,13.22
2018-04-12T01:00:53.339Z,13.20
2018-04-12T01:01:59.103Z,13.18
2018-04-12T01:03:05.005Z,13.18
2018-04-12T01:04:11.537Z,13.16
2018-04-12T01:05:17.120Z,13.15
2018-04-12T01:06:22.904Z,13.14
2018-04-12T01:07:28.706Z,13.12
2018-04-12T01:08:34.459Z,13.11
2018-04-12T01:09:40.251Z,13.09
2018-04-12T01:10:46.012Z,13.08
2018-04-12T01:11:52.345Z,13.08
2018-04-12T01:12:58.107Z,13.08
2018-04-12T01:14:04.639Z,13.07
2018-04-12T01:15:10.419Z,13.07
2018-04-12T01:16:16.756Z,13.05
2018-04-12T01:17:22.571Z,13.05
2018-04-12T01:18:28.317Z,13.02
2018-04-12T01:19:34.180Z,13.04
2018-04-12T01:20:39.719Z,13.02
2018-04-12T01:21:46.248Z,13.01
2018-04-12T01:22:52.059Z,12.99
2018-04-12T01:23:57.852Z,12.97
2018-04-12T01:25:03.608Z,12.98
2018-04-12T01:26:10.146Z,12.96
2018-04-12T01:27:15.937Z,12.94
2018-04-12T01:28:21.726Z,12.94
2018-04-12T01:29:27.497Z,12.93
2018-04-12T01:30:33.264Z,12.93
2018-04-12T01:31:39.027Z,12.91
2018-04-12T01:32:43.884Z,12.91
2018-04-12T01:33:49.672Z,12.90
2018-04-12T01:34:55.431Z,12.89
2018-04-12T01:36:01.197Z,12.89
2018-04-12T01:37:06.956Z,12.88
2018-04-12T01:38:12.732Z,12.89
2018-04-12T01:39:18.515Z,12.88
2018-04-12T01:40:24.296Z,12.87
2018-04-12T01:41:30.823Z,12.87
2018-04-12T01:42:36.670Z,12.86
2018-04-12T01:43:43.219Z,12.84
2018-04-12T01:44:49.544Z,12.82
2018-04-12T01:45:55.349Z,12.82
2018-04-12T01:47:01.879Z,12.81
2018-04-12T01:48:07.653Z,12.81
2018-04-12T01:49:13.415Z,12.81
2018-04-12T01:50:19.211Z,12.80
2018-04-12T01:51:24.966Z,12.79
2018-04-12T01:52:30.504Z,12.79
2018-04-12T01:53:37.049Z,12.80
2018-04-12T01:54:42.594Z,12.78
2018-04-12T01:55:49.157Z,12.78
2018-04-12T01:56:54.918Z,12.77
2018-04-12T01:58:01.470Z,12.77
2018-04-12T01:59:07.243Z,12.76
2018-04-12T02:00:13.026Z,12.75
2018-04-12T02:01:18.847Z,12.73
2018-04-12T02:02:24.613Z,12.74
2018-04-12T02:03:30.391Z,12.73
2018-04-12T02:04:35.966Z,12.72
2018-04-12T02:05:41.793Z,12.68
2018-04-12T02:06:47.635Z,12.67
2018-04-12T02:07:53.415Z,12.65
2018-04-12T02:08:59.183Z,12.67
2018-04-12T02:10:04.623Z,12.67
2018-04-12T02:11:10.923Z,12.66
2018-04-12T02:12:16.731Z,12.65
2018-04-12T02:13:23.027Z,12.64
2018-04-12T02:14:28.803Z,12.61
2018-04-12T02:15:34.444Z,12.60
2018-04-12T02:16:40.216Z,12.60
2018-04-12T02:17:46.008Z,12.58
2018-04-12T02:18:51.539Z,12.56
2018-04-12T02:19:57.316Z,12.55
2018-04-12T02:21:03.883Z,12.54
2018-04-12T02:22:10.262Z,12.53
2018-04-12T02:23:15.870Z,12.54
2018-04-12T02:24:21.640Z,12.52
2018-04-12T02:25:28.207Z,12.52
2018-04-12T02:26:33.987Z,12.52
2018-04-12T02:27:39.763Z,12.49
2018-04-12T02:28:46.333Z,12.50
2018-04-12T02:29:51.868Z,12.49
2018-04-12T02:30:58.512Z,12.48
2018-04-12T02:32:04.840Z,12.48
2018-04-12T02:33:10.642Z,12.48
2018-04-12T02:34:16.447Z,12.46
2018-04-12T02:35:22.995Z,12.46
2018-04-12T02:36:28.758Z,12.46
2018-04-12T02:37:35.067Z,12.45
2018-04-12T02:38:40.594Z,12.44
2018-04-12T02:39:46.465Z,12.43
2018-04-12T02:40:52.399Z,12.41
2018-04-12T02:41:57.978Z,12.42
2018-04-12T02:43:04.512Z,12.42
2018-04-12T02:44:10.284Z,12.42
2018-04-12T02:45:16.841Z,12.42
2018-04-12T02:46:23.392Z,12.40
2018-04-12T02:47:29.169Z,12.35
2018-04-12T02:48:34.952Z,12.36
2018-04-12T02:49:40.712Z,12.36
2018-04-12T02:50:48.000Z,12.36
2018-04-12T02:51:54.552Z,12.34
2018-04-12T02:53:00.332Z,12.31
2018-04-12T02:54:05.890Z,12.32
2018-04-12T02:55:11.662Z,12.33
2018-04-12T02:56:18.236Z,12.34
2018-04-12T02:57:24.010Z,12.33
2018-04-12T02:58:29.789Z,12.32
2018-04-12T02:59:35.574Z,12.32
2018-04-12T03:00:42.112Z,12.32
2018-04-12T03:01:47.903Z,12.30
2018-04-12T03:02:53.680Z,12.31
2018-04-12T03:03:59.456Z,12.29
2018-04-12T03:05:05.656Z,12.30
2018-04-12T03:06:11.093Z,12.30
2018-04-12T03:07:16.894Z,12.29
2018-04-12T03:08:23.416Z,12.29
2018-04-12T03:09:29.187Z,12.29
2018-04-12T03:10:35.732Z,12.30
2018-04-12T03:11:41.520Z,12.29
2018-04-12T03:12:47.337Z,12.28
2018-04-12T03:13:53.539Z,12.30
2018-04-12T03:14:59.315Z,12.28
2018-04-12T03:16:05.087Z,12.28
2018-04-12T03:17:10.851Z,12.28
2018-04-12T03:18:16.647Z,12.28
2018-04-12T03:19:23.182Z,12.26
2018-04-12T03:20:28.943Z,12.27
2018-04-12T03:21:34.723Z,12.28
2018-04-12T03:22:40.489Z,12.28
2018-04-12T03:23:46.299Z,12.29
2018-04-12T03:24:52.105Z,12.28
2018-04-12T03:25:59.383Z,12.28
2018-04-12T03:27:05.164Z,12.28
2018-04-12T03:28:11.028Z,12.27
2018-04-12T03:29:16.900Z,12.28
2018-04-12T03:30:22.763Z,12.28
2018-04-12T03:31:28.539Z,12.27
2018-04-12T03:32:35.093Z,12.27
2018-04-12T03:33:40.871Z,12.28
2018-04-12T03:34:46.404Z,12.27
2018-04-12T03:35:52.172Z,12.29
2018-04-12T03:36:57.943Z,12.30
2018-04-12T03:38:04.478Z,12.32
2018-04-12T03:39:10.336Z,12.35
2018-04-12T03:40:16.911Z,12.39
2018-04-12T03:41:23.497Z,12.42
2018-04-12T03:42:30.106Z,12.44
2018-04-12T03:43:36.004Z,12.48
2018-04-12T03:44:41.767Z,12.51
2018-04-12T03:45:47.562Z,12.53
2018-04-12T03:46:54.102Z,12.56
2018-04-12T03:47:59.868Z,12.58
2018-04-12T03:49:05.756Z,12.60
2018-04-12T03:50:11.644Z,12.62
2018-04-12T03:51:18.210Z,12.62
2018-04-12T03:52:24.995Z,12.65
2018-04-12T03:53:30.782Z,12.66
2018-04-12T03:54:36.582Z,12.65
2018-04-12T03:55:42.365Z,12.67
2018-04-12T03:56:48.155Z,12.66
2018-04-12T03:57:53.923Z,12.69
2018-04-12T03:58:59.692Z,12.71
2018-04-12T04:00:04.323Z,12.73
2018-04-12T04:01:10.106Z,12.74
2018-04-12T04:02:15.679Z,12.74
2018-04-12T04:03:21.452Z,12.72
2018-04-12T04:04:27.980Z,12.69
2018-04-12T04:05:33.761Z,12.70
2018-04-12T04:06:40.399Z,12.72
2018-04-12T04:07:46.969Z,12.74
2018-04-12T04:08:52.732Z,12.75
2018-04-12T04:09:59.311Z,12.73
2018-04-12T04:11:05.085Z,12.73
2018-04-12T04:12:10.884Z,12.74
2018-04-12T04:13:17.439Z,12.76
2018-04-12T04:14:40.140Z,12.71
2018-04-12T04:16:02.762Z,12.69
2018-04-12T04:17:25.380Z,12.69
2018-04-12T04:18:47.731Z,12.70
2018-04-12T04:20:10.444Z,12.69
2018-04-12T04:21:15.415Z,12.67
2018-04-12T04:22:23.414Z,12.67
2018-04-12T04:23:29.195Z,12.66
2018-04-12T04:24:35.072Z,12.68
2018-04-12T04:25:40.849Z,12.69
2018-04-12T04:26:46.636Z,12.68
2018-04-12T04:27:52.420Z,12.70
2018-04-12T04:28:58.176Z,12.71
2018-04-12T04:30:03.966Z,12.70
2018-04-12T04:31:09.727Z,12.69
2018-04-12T04:32:15.532Z,12.68
2018-04-12T04:33:21.311Z,12.69
2018-04-12T04:34:27.088Z,12.69
2018-04-12T04:35:32.896Z,12.69
2018-04-12T04:36:38.703Z,12.68
2018-04-12T04:37:44.455Z,12.68
2018-04-12T04:38:50.221Z,12.68
2018-04-12T04:39:56.085Z,12.70
2018-04-12T04:41:02.044Z,12.70
2018-04-12T04:42:07.820Z,12.71
2018-04-12T04:43:13.599Z,12.71
2018-04-12T04:44:19.163Z,12.73
2018-04-12T04:45:24.698Z,12.73
2018-04-12T04:46:30.486Z,12.75
2018-04-12T04:47:36.028Z,12.71
2018-04-12T04:48:41.802Z,12.69
2018-04-12T04:49:47.559Z,12.68
2018-04-12T04:50:54.093Z,12.70
2018-04-12T04:51:59.884Z,12.70
2018-04-12T04:53:07.409Z,12.71
2018-04-12T04:54:13.176Z,12.73
2018-04-12T04:55:19.711Z,12.73
2018-04-12T04:56:25.509Z,12.73
2018-04-12T04:57:32.076Z,12.74
2018-04-12T04:58:37.855Z,12.77
2018-04-12T04:59:43.623Z,12.77
2018-04-12T05:00:49.418Z,12.76
2018-04-12T05:01:56.577Z,12.78
2018-04-12T05:03:02.259Z,12.77
2018-04-12T05:04:08.020Z,12.78
2018-04-12T05:05:13.560Z,12.76
2018-04-12T05:06:19.107Z,12.75
2018-04-12T05:07:25.672Z,12.75
2018-04-12T05:08:31.232Z,12.78
2018-04-12T05:09:36.998Z,12.79
2018-04-12T05:10:42.532Z,12.78
2018-04-12T05:11:48.298Z,12.78
2018-04-12T05:12:54.062Z,12.77
2018-04-12T05:13:59.839Z,12.80
2018-04-12T05:15:05.289Z,12.82
2018-04-12T05:16:11.045Z,12.84
2018-04-12T05:17:16.814Z,12.84
2018-04-12T05:18:22.606Z,12.84
2018-04-12T05:19:28.403Z,12.86
2018-04-12T05:20:34.168Z,12.87
2018-04-12T05:21:40.466Z,12.87
2018-04-12T05:22:46.002Z,12.88
2018-04-12T05:23:51.540Z,12.90
2018-04-12T05:24:57.359Z,12.86
2018-04-12T05:26:02.889Z,12.88
2018-04-12T05:27:08.668Z,12.89
2018-04-12T05:28:14.427Z,12.89
2018-04-12T05:29:20.750Z,12.91
2018-04-12T05:30:26.320Z,12.92
2018-04-12T05:31:32.879Z,12.93
2018-04-12T05:32:38.682Z,12.93
2018-04-12T05:33:44.440Z,12.92
2018-04-12T05:34:50.253Z,12.93
2018-04-12T05:35:56.054Z,12.95
2018-04-12T05:37:02.042Z,12.96
2018-04-12T05:38:07.958Z,12.96
2018-04-12T05:39:14.535Z,12.98
2018-04-12T05:40:20.307Z,13.00
2018-04-12T05:41:26.120Z,13.00
2018-04-12T05:42:32.658Z,12.99
2018-04-12T05:43:38.432Z,13.00
2018-04-12T05:44:44.188Z,13.00
2018-04-12T05:45:49.949Z,13.00
2018-04-12T05:46:55.743Z,13.03
2018-04-12T05:48:02.279Z,13.04
2018-04-12T05:49:08.043Z,13.04
2018-04-12T05:50:14.618Z,13.08
2018-04-12T05:51:21.170Z,13.12
2018-04-12T05:52:26.963Z,13.07
2018-04-12T05:53:32.762Z,13.07
2018-04-12T05:54:38.535Z,13.09
2018-04-12T05:55:44.295Z,13.15
2018-04-12T05:56:50.822Z,13.22
2018-04-12T05:57:56.612Z,13.27
2018-04-12T05:59:03.156Z,13.33
2018-04-12T06:00:08.918Z,13.43
2018-04-12T06:01:15.452Z,13.47
2018-04-12T06:02:21.233Z,13.54
2018-04-12T06:03:27.787Z,13.59
2018-04-12T06:04:34.128Z,13.62
2018-04-12T06:05:39.901Z,13.68
2018-04-12T06:06:45.689Z,13.71
2018-04-12T06:07:51.482Z,13.73
2018-04-12T06:08:58.038Z,13.79
2018-04-12T06:10:04.244Z,13.83
2018-04-12T06:11:10.007Z,13.82
2018-04-12T06:12:15.784Z,13.79
2018-04-12T06:13:21.564Z,13.79
2018-04-12T06:14:27.138Z,13.84
2018-04-12T06:15:33.670Z,13.85
2018-04-12T06:16:39.448Z,13.93
2018-04-12T06:17:45.998Z,14.02
2018-04-12T06:18:52.529Z,14.07
2018-04-12T06:19:58.330Z,14.09
2018-04-12T06:21:04.100Z,14.14
2018-04-12T06:22:09.870Z,14.17
2018-04-12T06:23:15.410Z,14.17
2018-04-12T06:24:21.255Z,14.17
2018-04-12T06:25:26.817Z,14.20
2018-04-12T06:26:33.369Z,14.17
2018-04-12T06:27:39.960Z,14.20
2018-04-12T06:28:45.726Z,14.25
2018-04-12T06:29:51.540Z,14.25
2018-04-12T06:30:57.381Z,14.29
2018-04-12T06:32:03.140Z,14.34
2018-04-12T06:33:08.912Z,14.42
2018-04-12T06:34:14.675Z,14.43
2018-04-12T06:35:20.881Z,14.55
2018-04-12T06:36:26.666Z,14.65
2018-04-12T06:37:32.476Z,14.76
2018-04-12T06:38:38.236Z,14.75
2018-04-12T06:39:44.010Z,14.76
2018-04-12T06:40:50.539Z,14.79
2018-04-12T06:41:57.849Z,14.88
2018-04-12T06:43:04.368Z,14.93
2018-04-12T06:44:09.902Z,15.00
2018-04-12T06:45:15.443Z,15.00
2018-04-12T06:46:21.297Z,15.11
2018-04-12T06:47:28.600Z,15.10
2018-04-12T06:48:35.133Z,15.15
2018-04-12T06:49:40.900Z,15.23
2018-04-12T06:50:47.441Z,15.26
2018-04-12T06:51:54.020Z,15.26
2018-04-12T06:53:00.576Z,15.27
2018-04-12T06:54:06.478Z,15.27
2018-04-12T06:55:12.425Z,15.29
2018-04-12T06:56:18.202Z,15.30
2018-04-12T06:57:24.739Z,15.26
2018-04-12T06:58:30.543Z,15.34
2018-04-12T06:59:36.374Z,15.34
2018-04-12T07:00:42.375Z,15.45
2018-04-12T07:01:48.911Z,15.54
2018-04-12T07:02:54.728Z,15.68
2018-04-12T07:04:01.381Z,15.89
2018-04-12T07:05:06.825Z,16.02
2018-04-12T07:06:12.636Z,16.13
2018-04-12T07:07:19.172Z,16.24
2018-04-12T07:08:24.939Z,16.26
2018-04-12T07:09:31.510Z,16.37
2018-04-12T07:10:38.054Z,16.47
2018-04-12T07:11:44.592Z,16.53
2018-04-12T07:12:50.357Z,16.69
2018-04-12T07:13:56.919Z,16.84
2018-04-12T07:15:03.509Z,17.02
2018-04-12T07:16:09.276Z,17.16
2018-04-12T07:17:15.053Z,17.38
2018-04-12T07:18:20.816Z,17.71
2018-04-12T07:19:27.358Z,18.05
2018-04-12T07:20:33.164Z,18.32
2018-04-12T07:21:38.967Z,18.57
2018-04-12T07:22:45.512Z,18.83
2018-04-12T07:23:52.049Z,19.08
2018-04-12T07:24:57.819Z,19.18
2018-04-12T07:26:04.384Z,19.30
2018-04-12T07:27:10.684Z,19.36
2018-04-12T07:28:16.498Z,19.45
2018-04-12T07:29:23.051Z,19.64
2018-04-12T07:30:28.836Z,19.82
2018-04-12T07:31:34.632Z,19.93
2018-04-12T07:32:41.173Z,20.14
2018-04-12T07:33:46.944Z,20.53
2018-04-12T07:34:52.491Z,20.89
2018-04-12T07:35:58.254Z,21.16
2018-04-12T07:37:04.030Z,21.39
2018-04-12T07:38:09.803Z,21.61
2018-04-12T07:39:15.797Z,21.58
2018-04-12T07:40:21.323Z,21.71
2018-04-12T07:41:27.099Z,21.76
2018-04-12T07:42:33.693Z,21.66
2018-04-12T07:43:39.159Z,21.57
2018-04-12T07:44:45.382Z,21.44
2018-04-12T07:45:51.141Z,21.32
2018-04-12T07:46:56.932Z,21.21
2018-04-12T07:48:02.499Z,21.22
2018-04-12T07:49:08.251Z,21.20
2018-04-12T07:50:14.023Z,21.24
2018-04-12T07:51:19.787Z,21.15
2018-04-12T07:52:25.566Z,21.15
2018-04-12T07:53:32.121Z,20.96
2018-04-12T07:54:37.904Z,20.69
2018-04-12T07:55:43.681Z,20.46
2018-04-12T07:56:49.453Z,20.07
2018-04-12T07:57:54.995Z,20.02
2018-04-12T07:59:00.784Z,19.86
2018-04-12T08:00:06.597Z,19.75
2018-04-12T08:01:12.368Z,19.70
2018-04-12T08:02:18.030Z,19.62
2018-04-12T08:03:24.564Z,19.65
2018-04-12T08:04:30.351Z,19.65
2018-04-12T08:05:36.896Z,19.66
2018-04-12T08:06:43.203Z,19.66
2018-04-12T08:07:49.734Z,19.54
2018-04-12T08:08:55.507Z,19.45
2018-04-12T08:10:01.366Z,19.47
2018-04-12T08:11:07.140Z,19.35
2018-04-12T08:12:13.503Z,19.34
2018-04-12T08:13:20.059Z,19.32
2018-04-12T08:14:26.628Z,19.39
2018-04-12T08:15:32.953Z,19.26
2018-04-12T08:16:38.503Z,19.25
2018-04-12T08:17:45.042Z,19.18
2018-04-12T08:18:50.807Z,19.21
2018-04-12T08:19:57.111Z,19.30
2018-04-12T08:21:02.927Z,19.34
2018-04-12T08:22:08.697Z,19.43
2018-04-12T08:23:14.514Z,19.60
2018-04-12T08:24:20.282Z,19.95
2018-04-12T08:25:26.095Z,20.17
2018-04-12T08:26:32.640Z,20.32
2018-04-12T08:27:39.200Z,20.50
2018-04-12T08:28:45.741Z,20.67
2018-04-12T08:29:52.279Z,20.84
2018-04-12T08:30:58.053Z,21.10
2018-04-12T08:32:04.279Z,21.35
2018-04-12T08:33:10.051Z,21.85
2018-04-12T08:34:16.588Z,22.13
2018-04-12T08:35:22.349Z,22.16
2018-04-12T08:36:28.889Z,22.05
2018-04-12T08:37:34.720Z,22.00
2018-04-12T08:38:40.489Z,21.89
2018-04-12T08:39:47.023Z,21.71
2018-04-12T08:40:52.805Z,21.55
2018-04-12T08:41:59.331Z,21.47
2018-04-12T08:43:05.123Z,21.34
2018-04-12T08:44:10.929Z,21.35
2018-04-12T08:45:16.699Z,21.24
2018-04-12T08:46:22.481Z,21.06
2018-04-12T08:47:28.248Z,20.91
2018-04-12T08:48:34.055Z,20.82
2018-04-12T08:49:39.591Z,20.64
2018-04-12T08:50:45.363Z,20.55
2018-04-12T08:51:51.129Z,20.68
2018-04-12T08:52:57.668Z,20.66
2018-04-12T08:54:03.450Z,20.60
2018-04-12T08:55:09.231Z,20.53
2018-04-12T08:56:15.018Z,20.55
2018-04-12T08:57:21.558Z,20.37
2018-04-12T08:58:27.378Z,20.31
2018-04-12T08:59:33.193Z,20.41
2018-04-12T09:00:39.031Z,20.53
2018-04-12T09:01:44.791Z,20.72
2018-04-12T09:02:50.564Z,21.00
2018-04-12T09:03:56.092Z,21.32
2018-04-12T09:05:01.879Z,21.61
2018-04-12T09:06:08.406Z,21.87
2018-04-12T09:07:14.188Z,22.02
2018-04-12T09:08:20.732Z,22.13
2018-04-12T09:09:27.270Z,22.42
2018-04-12T09:10:33.046Z,22.65
2018-04-12T09:11:38.822Z,23.05
2018-04-12T09:12:44.603Z,23.46
2018-04-12T09:13:50.364Z,23.84
2018-04-12T09:14:56.887Z,24.35
2018-04-12T09:16:02.688Z,24.81
2018-04-12T09:17:08.470Z,25.49
2018-04-12T09:18:14.244Z,26.00
2018-04-12T09:19:20.791Z,26.39
2018-04-12T09:20:26.564Z,26.59
2018-04-12T09:21:33.132Z,26.60
2018-04-12T09:22:38.950Z,26.56
2018-04-12T09:23:44.906Z,26.65
2018-04-12T09:24:50.680Z,26.78
2018-04-12T09:25:56.679Z,27.09
2018-04-12T09:27:03.235Z,27.04
2018-04-12T09:28:09.157Z,27.00
2018-04-12T09:29:14.915Z,27.04
2018-04-12T09:30:21.460Z,27.08
2018-04-12T09:31:26.910Z,26.81
2018-04-12T09:32:33.491Z,26.95
2018-04-12T09:33:39.284Z,27.21
2018-04-12T09:34:45.089Z,27.42
2018-04-12T09:35:50.937Z,27.31
2018-04-12T09:36:56.717Z,27.28
2018-04-12T09:38:02.513Z,27.53
2018-04-12T09:39:07.147Z,27.70
2018-04-12T09:40:12.924Z,27.96
2018-04-12T09:41:18.753Z,27.76
2018-04-12T09:42:25.183Z,27.70
2018-04-12T09:43:30.973Z,27.78
2018-04-12T09:44:36.761Z,28.00
2018-04-12T09:45:42.520Z,28.19
2018-04-12T09:46:48.309Z,28.29
2018-04-12T09:47:54.085Z,28.16
2018-04-12T09:48:59.939Z,28.23
2018-04-12T09:50:05.521Z,28.02
2018-04-12T09:51:11.284Z,27.88
2018-04-12T09:52:17.820Z,27.81
2018-04-12T09:53:23.582Z,27.98
2018-04-12T09:54:30.131Z,28.02
2018-04-12T09:55:35.891Z,27.79
2018-04-12T09:56:42.419Z,27.70
2018-04-12T09:57:48.175Z,27.58
2018-04-12T09:58:53.956Z,27.86
2018-04-12T09:59:59.764Z,28.04
2018-04-12T10:01:11.089Z,27.93
2018-04-12T10:02:16.612Z,28.13
2018-04-12T10:03:22.354Z,28.15
2018-04-12T10:04:27.876Z,28.08
2018-04-12T10:05:34.190Z,28.02
2018-04-12T10:06:39.932Z,28.02
2018-04-12T10:07:50.945Z,28.02
2018-04-12T10:09:01.935Z,28.01
2018-04-12T10:10:07.895Z,27.92
2018-04-12T10:11:13.667Z,27.74
2018-04-12T10:12:19.418Z,27.57
2018-04-12T10:13:25.976Z,27.35
2018-04-12T10:14:32.515Z,27.18
2018-04-12T10:15:38.293Z,27.13
2018-04-12T10:16:44.836Z,27.03
2018-04-12T10:17:51.420Z,27.00
2018-04-12T10:18:57.979Z,26.80
2018-04-12T10:20:03.921Z,26.67
2018-04-12T10:21:10.444Z,26.44
2018-04-12T10:22:16.213Z,26.38
2018-04-12T10:23:22.407Z,26.38
2018-04-12T10:24:28.180Z,26.42
2018-04-12T10:25:33.983Z,26.45
2018-04-12T10:26:39.893Z,26.14
2018-04-12T10:27:46.435Z,26.07
2018-04-12T10:28:52.196Z,25.84
2018-04-12T10:29:58.492Z,25.21
2018-04-12T10:31:04.015Z,25.02
2018-04-12T10:32:09.528Z,24.73
2018-04-12T10:33:16.079Z,24.62
2018-04-12T10:34:22.588Z,24.55
2018-04-12T10:35:28.333Z,24.52
2018-04-12T10:36:34.080Z,24.55
2018-04-12T10:37:39.833Z,24.51
2018-04-12T10:38:45.673Z,24.49
2018-04-12T10:39:52.343Z,24.44
2018-04-12T10:40:58.129Z,24.49
2018-04-12T10:42:04.649Z,24.51
2018-04-12T10:43:11.178Z,24.34
2018-04-12T10:44:16.709Z,24.34
2018-04-12T10:45:21.891Z,24.20
2018-04-12T10:46:28.167Z,23.88
2018-04-12T10:47:33.912Z,23.68
2018-04-12T10:48:39.660Z,23.57
2018-04-12T10:49:45.442Z,23.46
2018-04-12T10:50:51.195Z,23.36
2018-04-12T10:51:56.976Z,23.34
2018-04-12T10:53:03.671Z,23.25
2018-04-12T10:54:09.431Z,23.20
2018-04-12T10:55:15.206Z,23.17
2018-04-12T10:56:21.500Z,23.12
2018-04-12T10:57:27.793Z,23.07
2018-04-12T10:58:33.556Z,22.92
2018-04-12T10:59:39.839Z,22.61
2018-04-12T11:00:45.616Z,22.41
2018-04-12T11:01:51.144Z,22.38
2018-04-12T11:02:57.044Z,22.30
2018-04-12T11:04:03.560Z,22.25
2018-04-12T11:05:09.372Z,22.18
2018-04-12T11:06:15.144Z,22.20
2018-04-12T11:07:20.903Z,22.30
2018-04-12T11:08:26.426Z,22.28
2018-04-12T11:09:32.265Z,22.29
2018-04-12T11:10:38.049Z,22.22
2018-04-12T11:11:44.592Z,22.13
2018-04-12T11:12:51.119Z,22.00
2018-04-12T11:13:56.911Z,21.92
2018-04-12T11:15:03.470Z,21.92
2018-04-12T11:16:09.984Z,21.92
2018-04-12T11:17:15.763Z,21.92
2018-04-12T11:18:22.354Z,21.95
2018-04-12T11:19:28.264Z,21.98
2018-04-12T11:20:34.839Z,22.06
2018-04-12T11:21:40.400Z,22.03
2018-04-12T11:22:46.195Z,22.02
2018-04-12T11:23:51.952Z,22.00
2018-04-12T11:24:58.490Z,22.02
2018-04-12T11:26:04.444Z,22.02
2018-04-12T11:27:11.078Z,22.02
2018-04-12T11:28:17.028Z,22.05
2018-04-12T11:29:22.783Z,22.09
2018-04-12T11:30:28.547Z,22.05
2018-04-12T11:31:35.079Z,22.03
2018-04-12T11:32:41.840Z,22.03
2018-04-12T11:33:47.622Z,22.06
2018-04-12T11:34:53.381Z,22.02
2018-04-12T11:35:59.293Z,22.03
2018-04-12T11:37:05.824Z,22.08
2018-04-12T11:38:11.608Z,22.14
2018-04-12T11:39:17.604Z,22.18
2018-04-12T11:40:23.378Z,22.24
2018-04-12T11:41:29.964Z,22.28
2018-04-12T11:42:35.295Z,22.31
2018-04-12T11:43:41.070Z,22.32
2018-04-12T11:44:46.853Z,22.36
2018-04-12T11:45:53.372Z,22.36
2018-04-12T11:46:59.150Z,22.40
2018-04-12T11:48:04.910Z,22.44
2018-04-12T11:49:11.276Z,22.44
2018-04-12T11:50:17.055Z,22.43
2018-04-12T11:51:22.836Z,22.40
2018-04-12T11:52:29.368Z,22.41
2018-04-12T11:53:35.129Z,22.48
2018-04-12T11:54:40.896Z,22.50
2018-04-12T11:55:47.439Z,22.48
2018-04-12T11:56:53.971Z,22.50
2018-04-12T11:57:59.754Z,22.56
2018-04-12T11:59:06.271Z,22.57
2018-04-12T12:00:12.031Z,22.54
2018-04-12T12:01:17.821Z,22.46
2018-04-12T12:02:23.594Z,22.35
2018-04-12T12:03:29.540Z,22.36
2018-04-12T12:04:35.298Z,22.45
2018-04-12T12:05:41.055Z,22.49
2018-04-12T12:06:47.638Z,22.54
2018-04-12T12:07:54.151Z,22.64
2018-04-12T12:08:59.911Z,22.78
2018-04-12T12:10:05.343Z,22.86
2018-04-12T12:11:12.617Z,22.96
2018-04-12T12:12:18.167Z,23.02
2018-04-12T12:13:23.935Z,23.12
2018-04-12T12:14:29.684Z,23.24
2018-04-12T12:15:36.387Z,23.32
2018-04-12T12:16:42.145Z,23.44
2018-04-12T12:17:47.935Z,23.45
2018-04-12T12:18:53.741Z,23.42
2018-04-12T12:19:59.918Z,23.44
2018-04-12T12:21:05.680Z,23.51
2018-04-12T12:22:11.427Z,23.64
2018-04-12T12:23:17.216Z,23.71
2018-04-12T12:24:23.742Z,23.80
2018-04-12T12:25:29.495Z,23.90
2018-04-12T12:26:36.011Z,24.03
2018-04-12T12:27:41.764Z,24.15
2018-04-12T12:28:47.348Z,24.21
2018-04-12T12:29:53.096Z,24.23
2018-04-12T12:30:58.834Z,24.34
2018-04-12T12:32:04.602Z,24.43
2018-04-12T12:33:11.111Z,24.41
2018-04-12T12:34:16.917Z,24.40
2018-04-12T12:35:22.671Z,24.43
2018-04-12T12:36:28.424Z,24.52
2018-04-12T12:37:34.174Z,24.58
2018-04-12T12:38:39.931Z,24.52
2018-04-12T12:39:45.707Z,24.53
2018-04-12T12:40:52.230Z,24.51
2018-04-12T12:41:58.186Z,24.50
2018-04-12T12:43:03.943Z,24.47
2018-04-12T12:44:10.137Z,24.48
2018-04-12T12:45:15.938Z,24.48
2018-04-12T12:46:22.465Z,24.47
2018-04-12T12:47:29.940Z,24.47
2018-04-12T12:48:35.974Z,24.50
2018-04-12T12:49:41.734Z,24.57
2018-04-12T12:50:47.558Z,24.61
2018-04-12T12:51:54.244Z,24.69
2018-04-12T12:53:00.021Z,24.78
2018-04-12T12:54:06.591Z,24.80
2018-04-12T12:55:12.343Z,24.89
2018-04-12T12:56:18.123Z,24.84
2018-04-12T12:57:23.903Z,24.83
2018-04-12T12:58:30.418Z,24.75
2018-04-12T12:59:36.514Z,24.69
2018-04-12T13:00:42.879Z,24.69
2018-04-12T13:01:49.541Z,24.63
2018-04-12T13:02:56.307Z,24.65
2018-04-12T13:04:02.851Z,24.72
2018-04-12T13:05:09.530Z,24.71
2018-04-12T13:06:15.316Z,24.73
2018-04-12T13:07:21.181Z,24.60
2018-04-12T13:08:26.936Z,24.59
2018-04-12T13:09:33.480Z,24.51
2018-04-12T13:10:40.025Z,24.53
2018-04-12T13:11:46.636Z,24.49
2018-04-12T13:12:53.244Z,24.44
2018-04-12T13:14:00.170Z,24.48
2018-04-12T13:15:06.704Z,24.42
2018-04-12T13:16:12.459Z,24.43
2018-04-12T13:17:19.783Z,24.43
2018-04-12T13:18:25.589Z,24.50
2018-04-12T13:19:32.107Z,24.60
2018-04-12T13:20:37.873Z,24.61
2018-04-12T13:21:43.798Z,24.65
2018-04-12T13:22:49.554Z,24.70
2018-04-12T13:23:57.287Z,24.78
2018-04-12T13:25:03.599Z,24.81
2018-04-12T13:26:09.560Z,24.79
2018-04-12T13:27:16.167Z,24.80
2018-04-12T13:28:22.682Z,24.77
2018-04-12T13:29:29.083Z,24.81
2018-04-12T13:30:34.887Z,24.81
2018-04-12T13:31:41.173Z,24.79
2018-04-12T13:32:46.947Z,24.81
2018-04-12T13:33:53.849Z,24.80
2018-04-12T13:35:01.358Z,24.80
2018-04-12T13:36:07.281Z,24.82
2018-04-12T13:37:13.062Z,24.81
2018-04-12T13:38:20.605Z,24.82
2018-04-12T13:39:26.529Z,24.79
2018-04-12T13:40:32.488Z,24.79
2018-04-12T13:41:38.379Z,24.77
2018-04-12T13:42:45.046Z,24.69
2018-04-12T13:43:51.548Z,24.61
2018-04-12T13:44:58.691Z,24.66
2018-04-12T13:46:05.260Z,24.71
2018-04-12T13:47:11.021Z,24.76
2018-04-12T13:48:18.204Z,24.83
2018-04-12T13:49:24.733Z,24.90
2018-04-12T13:50:30.510Z,24.91
2018-04-12T13:51:37.132Z,24.92
2018-04-12T13:52:47.859Z,24.91
2018-04-12T13:53:53.382Z,24.93
2018-04-12T13:54:59.143Z,24.93
2018-04-12T13:56:04.897Z,24.88
2018-04-12T13:57:10.673Z,24.92
2018-04-12T13:58:16.447Z,24.89
2018-04-12T13:59:22.209Z,24.79
2018-04-12T14:00:27.964Z,24.76
2018-04-12T14:01:33.658Z,24.77
2018-04-12T14:02:39.583Z,24.78
2018-04-12T14:03:45.347Z,24.86
2018-04-12T14:04:51.278Z,24.88
2018-04-12T14:05:57.827Z,24.88
2018-04-12T14:07:04.373Z,24.94
2018-04-12T14:08:10.234Z,25.08
2018-04-12T14:09:17.525Z,25.14
2018-04-12T14:10:24.445Z,25.14
2018-04-12T14:11:30.347Z,25.18